createdAt,value
2022-12-05T00:02:05.627Z,98411.34
2022-12-05T00:07:28.436Z,98408.50
2022-12-05T00:12:50.194Z,98402.91
2022-12-05T00:18:11.880Z,98406.69
2022-12-05T00:23:33.831Z,98409.88
2022-12-05T00:28:56.535Z,98405.03
2022-12-05T00:34:18.390Z,98403.91
2022-12-05T00:39:40.110Z,98402.78
2022-12-05T00:45:01.972Z,98406.28
2022-12-05T00:50:23.669Z,98411.34
2022-12-05T00:55:45.357Z,98413.97
2022-12-05T01:01:09.862Z,98423.53
2022-12-05T01:06:31.854Z,98441.94
2022-12-05T01:11:53.815Z,98443.78
2022-12-05T01:17:15.521Z,98457.66
2022-12-05T01:22:37.205Z,98469.34
2022-12-05T01:27:58.936Z,98455.03
2022-12-05T01:33:20.635Z,98466.53
2022-12-05T01:38:43.321Z,98465.31
2022-12-05T01:44:06.609Z,98449.94
2022-12-05T01:49:36.046Z,98474.47
2022-12-05T01:55:03.452Z,98475.31
2022-12-05T02:00:25.167Z,98472.66
2022-12-05T02:05:50.886Z,98469.25
2022-12-05T02:11:13.159Z,98475.31
2022-12-05T02:16:53.096Z,98492.78
2022-12-05T02:22:36.237Z,98481.72
2022-12-05T02:28:16.767Z,98494.38
2022-12-05T02:33:50.543Z,98514.59
2022-12-05T02:39:39.999Z,98528.56
2022-12-05T02:45:07.218Z,98514.59
2022-12-05T02:50:33.935Z,98514.34
2022-12-05T02:55:56.519Z,98528.56
2022-12-05T03:01:21.635Z,98541.03
2022-12-05T03:06:49.307Z,98525.00
2022-12-05T03:12:25.239Z,98509.41
2022-12-05T03:18:06.461Z,98504.00
2022-12-05T03:23:40.143Z,98503.19
2022-12-05T03:29:13.884Z,98506.00
2022-12-05T03:34:50.121Z,98510.06
2022-12-05T03:40:30.791Z,98503.41
2022-12-05T03:45:59.152Z,98505.09
2022-12-05T03:51:25.463Z,98516.88
2022-12-05T03:56:52.694Z,98520.31
2022-12-05T04:02:24.896Z,98516.88
2022-12-05T04:07:51.725Z,98511.88
2022-12-05T04:13:19.275Z,98509.16
2022-12-05T04:18:46.377Z,98496.97
2022-12-05T04:24:35.387Z,98508.13
2022-12-05T04:30:13.152Z,98521.22
2022-12-05T04:35:43.539Z,98533.88
2022-12-05T04:41:10.317Z,98539.22
2022-12-05T04:46:34.873Z,98533.06
2022-12-05T04:52:02.310Z,98545.31
2022-12-05T04:57:29.407Z,98541.03
2022-12-05T05:03:21.153Z,98555.56
2022-12-05T05:08:57.394Z,98547.84
2022-12-05T05:14:19.180Z,98553.25
2022-12-05T05:19:40.851Z,98559.94
2022-12-05T05:25:02.520Z,98559.09
2022-12-05T05:30:25.388Z,98580.63
2022-12-05T05:35:47.205Z,98583.63
2022-12-05T05:41:14.238Z,98584.38
2022-12-05T05:46:36.763Z,98601.75
2022-12-05T05:51:58.506Z,98603.47
2022-12-05T05:57:20.677Z,98593.78
2022-12-05T06:02:42.742Z,98582.63
2022-12-05T06:08:05.094Z,98577.59
2022-12-05T06:13:26.816Z,98595.69
2022-12-05T06:18:49.952Z,98597.25
2022-12-05T06:24:11.702Z,98595.69
2022-12-05T06:29:34.470Z,98598.06
2022-12-05T06:34:56.227Z,98616.31
2022-12-05T06:40:17.932Z,98631.19
2022-12-05T06:45:39.715Z,98637.44
2022-12-05T06:51:01.600Z,98636.22
2022-12-05T06:56:23.336Z,98633.09
2022-12-05T07:01:46.310Z,98636.69
2022-12-05T07:07:08.637Z,98642.41
2022-12-05T07:12:32.737Z,98645.88
2022-12-05T07:17:54.516Z,98642.09
2022-12-05T07:23:16.214Z,98669.91
2022-12-05T07:28:38.071Z,98667.00
2022-12-05T07:33:59.818Z,98680.72
2022-12-05T07:39:21.919Z,98677.84
2022-12-05T07:44:43.609Z,98659.19
2022-12-05T07:50:06.137Z,98667.50
2022-12-05T07:55:27.911Z,98674.47
2022-12-05T08:00:49.609Z,98679.53
2022-12-05T08:06:17.476Z,98677.00
2022-12-05T08:11:39.250Z,98677.47
2022-12-05T08:17:01.033Z,98677.53
2022-12-05T08:22:22.915Z,98696.81
2022-12-05T08:27:44.620Z,98703.47
2022-12-05T08:33:06.317Z,98704.19
2022-12-05T08:38:28.258Z,98713.28
2022-12-05T08:43:49.919Z,98719.72
2022-12-05T08:49:12.269Z,98723.56
2022-12-05T08:54:33.990Z,98729.56
2022-12-05T08:59:55.704Z,98716.84
2022-12-05T09:05:27.579Z,98724.47
2022-12-05T09:10:50.628Z,98731.56
2022-12-05T09:16:15.387Z,98743.47
2022-12-05T09:21:37.106Z,98753.69
2022-12-05T09:26:58.783Z,98757.88
2022-12-05T09:32:20.513Z,98752.97
2022-12-05T09:37:42.307Z,98758.81
2022-12-05T09:43:07.113Z,98768.38
2022-12-05T09:48:29.453Z,98769.88
2022-12-05T09:53:51.201Z,98767.88
2022-12-05T09:59:20.331Z,98764.72
2022-12-05T10:04:45.214Z,98763.84
2022-12-05T10:10:28.528Z,98769.56
2022-12-05T10:16:02.953Z,98766.75
2022-12-05T10:21:33.160Z,98760.41
2022-12-05T10:27:00.248Z,98763.94
2022-12-05T10:32:28.554Z,98753.28
2022-12-05T10:37:54.358Z,98754.53
2022-12-05T10:43:25.497Z,98747.56
2022-12-05T10:48:47.219Z,98745.63
2022-12-05T10:54:22.084Z,98751.56
2022-12-05T10:59:46.793Z,98753.00
2022-12-05T11:05:09.688Z,98744.28
2022-12-05T11:10:37.705Z,98748.94
2022-12-05T11:16:00.293Z,98747.03
2022-12-05T11:21:22.395Z,98749.91
2022-12-05T11:26:45.484Z,98739.47
2022-12-05T11:32:22.179Z,98739.03
2022-12-05T11:38:02.715Z,98741.13
2022-12-05T11:43:24.376Z,98736.94
2022-12-05T11:48:46.002Z,98725.22
2022-12-05T11:55:03.200Z,98727.09
2022-12-05T12:00:35.060Z,98719.31
2022-12-05T12:06:27.241Z,98725.50
2022-12-05T12:12:24.305Z,98725.22
2022-12-05T12:18:00.511Z,98721.03
2022-12-05T12:23:40.652Z,98727.59
2022-12-05T12:29:31.922Z,98717.34
2022-12-05T12:35:22.308Z,98714.75
2022-12-05T12:41:08.717Z,98722.75
2022-12-05T12:46:36.485Z,98721.72
2022-12-05T12:52:13.435Z,98723.25
2022-12-05T12:57:41.223Z,98716.22
2022-12-05T13:03:11.033Z,98718.00
2022-12-05T13:08:46.131Z,98713.19
2022-12-05T13:14:13.943Z,98711.50
2022-12-05T13:19:43.957Z,98707.94
2022-12-05T13:25:06.071Z,98715.13
2022-12-05T13:30:28.363Z,98712.34
2022-12-05T13:36:12.856Z,98703.63
2022-12-05T13:42:02.533Z,98708.63
2022-12-05T13:47:59.079Z,98719.03
2022-12-05T13:53:37.484Z,98714.28
2022-12-05T13:58:59.382Z,98720.56
2022-12-05T14:04:45.057Z,98736.19
2022-12-05T14:10:08.676Z,98742.16
2022-12-05T14:15:42.693Z,98752.38
2022-12-05T14:21:14.625Z,98753.34
2022-12-05T14:26:52.562Z,98748.38
2022-12-05T14:32:38.814Z,98754.63
2022-12-05T14:38:18.667Z,98756.25
2022-12-05T14:43:41.306Z,98756.97
2022-12-05T14:49:37.503Z,98760.88
2022-12-05T14:55:05.941Z,98767.88
2022-12-05T15:00:27.756Z,98766.44
2022-12-05T15:05:50.207Z,98768.59
2022-12-05T15:11:28.084Z,98769.25
2022-12-05T15:16:53.927Z,98756.53
2022-12-05T15:22:19.515Z,98760.25
2022-12-05T15:27:41.287Z,98763.47
2022-12-05T15:33:04.906Z,98767.06
2022-12-05T15:38:30.947Z,98777.75
2022-12-05T15:43:57.530Z,98784.72
2022-12-05T15:49:28.127Z,98785.72
2022-12-05T15:54:52.367Z,98803.91
2022-12-05T16:00:19.059Z,98806.72
2022-12-05T16:05:51.153Z,98812.34
2022-12-05T16:11:14.007Z,98804.28
2022-12-05T16:16:38.488Z,98813.94
2022-12-05T16:22:00.208Z,98814.94
2022-12-05T16:27:25.388Z,98821.03
2022-12-05T16:32:49.530Z,98827.91
2022-12-05T16:38:17.067Z,98834.81
2022-12-05T16:43:38.667Z,98825.19
2022-12-05T16:49:33.221Z,98828.88
2022-12-05T16:54:54.906Z,98823.47
2022-12-05T17:00:16.929Z,98832.22
2022-12-05T17:05:38.689Z,98826.44
2022-12-05T17:11:03.246Z,98833.09
2022-12-05T17:16:26.640Z,98831.41
2022-12-05T17:21:48.671Z,98828.66
2022-12-05T17:27:12.099Z,98834.72
2022-12-05T17:32:33.782Z,98824.25
2022-12-05T17:37:55.529Z,98825.34
2022-12-05T17:43:23.007Z,98833.81
2022-12-05T17:48:48.313Z,98836.59
2022-12-05T17:54:10.142Z,98832.06
2022-12-05T17:59:31.928Z,98830.84
2022-12-05T18:04:53.634Z,98826.31
2022-12-05T18:10:19.128Z,98832.59
2022-12-05T18:15:43.258Z,98838.03
2022-12-05T18:21:07.473Z,98840.56
2022-12-05T18:26:29.188Z,98829.06
2022-12-05T18:31:50.909Z,98828.44
2022-12-05T18:37:12.680Z,98836.19
2022-12-05T18:42:34.389Z,98836.19
2022-12-05T18:48:04.600Z,98843.34
2022-12-05T18:53:31.950Z,98840.91
2022-12-05T18:59:00.326Z,98845.69
2022-12-05T19:04:22.383Z,98852.44
2022-12-05T19:09:44.354Z,98854.19
2022-12-05T19:15:06.668Z,98869.41
2022-12-05T19:20:28.502Z,98859.50
2022-12-05T19:25:54.526Z,98855.19
2022-12-05T19:31:18.863Z,98854.31
2022-12-05T19:36:45.326Z,98862.88
2022-12-05T19:42:07.083Z,98857.69
2022-12-05T19:47:28.865Z,98868.00
2022-12-05T19:52:50.588Z,98855.88
2022-12-05T19:58:12.336Z,98859.22
2022-12-05T20:03:34.055Z,98864.88
2022-12-05T20:08:55.807Z,98856.81
2022-12-05T20:14:18.499Z,98868.00
2022-12-05T20:19:40.298Z,98866.03
2022-12-05T20:25:02.691Z,98866.09
2022-12-05T20:30:24.524Z,98864.56
2022-12-05T20:35:46.279Z,98860.19
2022-12-05T20:41:15.340Z,98863.44
2022-12-05T20:46:37.246Z,98859.06
2022-12-05T20:51:59.138Z,98865.22
2022-12-05T20:57:20.898Z,98861.34
2022-12-05T21:02:42.674Z,98865.84
2022-12-05T21:08:04.759Z,98870.75
2022-12-05T21:13:26.497Z,98873.28
2022-12-05T21:18:50.128Z,98858.53
2022-12-05T21:24:12.305Z,98867.97
2022-12-05T21:29:34.021Z,98862.88
2022-12-05T21:34:57.029Z,98860.34
2022-12-05T21:40:19.368Z,98856.63
2022-12-05T21:45:44.274Z,98856.78
2022-12-05T21:51:08.772Z,98856.19
2022-12-05T21:56:30.549Z,98858.94
2022-12-05T22:01:52.280Z,98859.69
2022-12-05T22:07:14.164Z,98863.53
2022-12-05T22:12:35.841Z,98859.03
2022-12-05T22:17:57.585Z,98862.41
2022-12-05T22:23:19.276Z,98869.41
2022-12-05T22:28:41.440Z,98862.72
2022-12-05T22:34:03.157Z,98857.47
2022-12-05T22:39:24.847Z,98855.31
2022-12-05T22:44:46.536Z,98848.34
2022-12-05T22:50:08.518Z,98838.63
2022-12-05T22:55:31.369Z,98846.03
2022-12-05T23:00:53.144Z,98841.38
2022-12-05T23:06:17.946Z,98837.41
2022-12-05T23:11:39.645Z,98841.00
2022-12-05T23:17:01.782Z,98836.63
2022-12-05T23:22:23.480Z,98832.19
2022-12-05T23:27:45.258Z,98829.50
2022-12-05T23:33:06.999Z,98827.00
2022-12-05T23:38:29.051Z,98827.69
2022-12-05T23:43:52.033Z,98820.56
2022-12-05T23:49:13.875Z,98816.19
2022-12-05T23:54:35.770Z,98817.81
2022-12-05T23:59:57.810Z,98815.34
